createdAt,value
2019-05-28T00:01:04.931Z,4.73
2019-05-28T00:03:34.924Z,6.07
2019-05-28T00:06:04.724Z,5.83
2019-05-28T00:08:34.360Z,8.13
2019-05-28T00:11:04.089Z,3.60
2019-05-28T00:13:33.732Z,4.17
2019-05-28T00:16:03.385Z,3.93
2019-05-28T00:18:33.077Z,5.10
2019-05-28T00:21:02.826Z,4.07
2019-05-28T00:23:32.775Z,5.63
2019-05-28T00:26:02.444Z,5.70
2019-05-28T00:28:32.095Z,5.77
2019-05-28T00:31:01.755Z,4.37
2019-05-28T00:33:31.451Z,6.27
2019-05-28T00:36:01.378Z,5.43
2019-05-28T00:38:31.048Z,5.43
2019-05-28T00:41:00.747Z,4.27
2019-05-28T00:43:30.431Z,4.37
2019-05-28T00:46:00.420Z,5.20
2019-05-28T00:48:30.167Z,7.97
2019-05-28T00:50:59.896Z,6.37
2019-05-28T00:53:29.683Z,5.10
2019-05-28T00:55:59.667Z,6.00
2019-05-28T00:58:32.038Z,5.80
2019-05-28T01:01:02.145Z,4.97
2019-05-28T01:03:32.187Z,4.77
2019-05-28T01:06:02.115Z,6.30
2019-05-28T01:08:32.039Z,5.17
2019-05-28T01:11:01.674Z,4.33
2019-05-28T01:13:31.575Z,6.43
2019-05-28T01:16:01.270Z,6.50
2019-05-28T01:18:30.935Z,6.77
2019-05-28T01:21:00.693Z,5.03
2019-05-28T01:23:30.357Z,5.50
2019-05-28T01:26:00.119Z,6.77
2019-05-28T01:28:30.107Z,7.87
2019-05-28T01:31:01.119Z,7.40
2019-05-28T01:33:30.992Z,9.10
2019-05-28T01:36:00.839Z,8.27
2019-05-28T01:38:31.471Z,5.30
2019-05-28T01:41:02.097Z,7.70
2019-05-28T01:43:31.755Z,6.67
2019-05-28T01:46:01.436Z,7.70
2019-05-28T01:48:31.302Z,7.23
2019-05-28T01:51:00.946Z,7.63
2019-05-28T01:53:30.898Z,4.77
2019-05-28T01:56:00.639Z,11.10
2019-05-28T01:58:30.370Z,7.77
2019-05-28T02:01:12.288Z,9.03
2019-05-28T02:03:32.032Z,8.33
2019-05-28T02:06:01.703Z,8.07
2019-05-28T02:08:31.524Z,8.97
2019-05-28T02:11:01.187Z,6.47
2019-05-28T02:13:30.831Z,8.90
2019-05-28T02:16:00.479Z,6.23
2019-05-28T02:18:30.215Z,7.43
2019-05-28T02:20:59.982Z,9.27
2019-05-28T02:23:29.711Z,6.70
2019-05-28T02:25:59.431Z,6.50
2019-05-28T02:28:29.447Z,7.23
2019-05-28T02:30:59.096Z,6.30
2019-05-28T02:33:28.846Z,9.70
2019-05-28T02:35:58.997Z,8.97
2019-05-28T02:38:28.652Z,6.00
2019-05-28T02:40:58.451Z,6.43
2019-05-28T02:43:28.155Z,9.00
2019-05-28T02:45:57.962Z,8.87
2019-05-28T02:48:27.602Z,8.67
2019-05-28T02:51:02.072Z,9.40
2019-05-28T02:53:32.702Z,7.50
2019-05-28T02:56:02.513Z,7.67
2019-05-28T02:58:34.493Z,7.73
2019-05-28T03:01:06.853Z,8.53
2019-05-28T03:03:36.788Z,6.33
2019-05-28T03:06:12.710Z,7.03
2019-05-28T03:08:44.809Z,7.63
2019-05-28T03:11:14.538Z,11.87
2019-05-28T03:13:44.184Z,7.73
2019-05-28T03:16:14.733Z,6.87
2019-05-28T03:18:44.811Z,7.43
2019-05-28T03:21:15.597Z,7.90
2019-05-28T03:23:45.336Z,9.93
2019-05-28T03:26:15.387Z,8.20
2019-05-28T03:28:45.639Z,8.97
2019-05-28T03:31:15.413Z,7.10
2019-05-28T03:33:45.383Z,9.63
2019-05-28T03:36:17.460Z,9.13
2019-05-28T03:38:47.853Z,9.27
2019-05-28T03:41:17.735Z,9.17
2019-05-28T03:43:47.410Z,9.47
2019-05-28T03:46:17.064Z,9.17
2019-05-28T03:48:47.153Z,10.13
2019-05-28T03:51:16.859Z,12.53
2019-05-28T03:53:46.499Z,9.37
2019-05-28T03:56:16.648Z,9.93
2019-05-28T03:58:46.348Z,8.80
2019-05-28T04:01:16.015Z,10.57
2019-05-28T04:03:45.990Z,8.10
2019-05-28T04:06:15.707Z,10.13
2019-05-28T04:08:45.351Z,7.87
2019-05-28T04:11:15.079Z,10.63
2019-05-28T04:13:45.035Z,9.73
2019-05-28T04:16:14.740Z,7.67
2019-05-28T04:18:44.405Z,7.50
2019-05-28T04:21:14.464Z,11.97
2019-05-28T04:23:44.300Z,11.23
2019-05-28T04:26:14.107Z,7.67
2019-05-28T04:28:44.191Z,9.10
2019-05-28T04:31:14.196Z,11.77
2019-05-28T04:33:43.911Z,7.70
2019-05-28T04:36:13.631Z,7.83
2019-05-28T04:38:43.283Z,7.10
2019-05-28T04:41:13.272Z,7.17
2019-05-28T04:43:43.080Z,7.00
2019-05-28T04:46:12.887Z,8.77
2019-05-28T04:48:43.087Z,5.23
2019-05-28T04:51:12.728Z,11.13
2019-05-28T04:53:42.431Z,11.17
2019-05-28T04:56:12.324Z,7.53
2019-05-28T04:58:42.048Z,7.77
2019-05-28T05:01:11.768Z,6.57
2019-05-28T05:03:41.416Z,11.43
2019-05-28T05:06:11.193Z,6.97
2019-05-28T05:08:40.915Z,8.40
2019-05-28T05:11:10.818Z,10.37
2019-05-28T05:13:40.551Z,10.20
2019-05-28T05:16:10.431Z,8.57
2019-05-28T05:18:40.171Z,6.77
2019-05-28T05:21:09.816Z,9.60
2019-05-28T05:23:39.760Z,8.30
2019-05-28T05:26:09.699Z,7.63
2019-05-28T05:28:39.366Z,6.77
2019-05-28T05:31:09.019Z,6.90
2019-05-28T05:33:38.738Z,6.83
2019-05-28T05:36:08.537Z,4.50
2019-05-28T05:38:38.208Z,6.57
2019-05-28T05:41:07.870Z,6.27
2019-05-28T05:43:37.605Z,6.53
2019-05-28T05:46:07.372Z,3.40
2019-05-28T05:48:37.023Z,5.47
2019-05-28T05:51:07.014Z,3.53
2019-05-28T05:53:37.016Z,3.37
2019-05-28T05:56:06.684Z,4.20
2019-05-28T05:58:36.666Z,5.47
2019-05-28T06:01:06.409Z,4.43
2019-05-28T06:03:40.220Z,3.70
2019-05-28T06:06:07.647Z,5.43
2019-05-28T06:08:37.397Z,7.23
2019-05-28T06:11:07.187Z,3.63
2019-05-28T06:13:36.831Z,4.07
2019-05-28T06:16:06.599Z,2.33
2019-05-28T06:18:36.954Z,3.97
2019-05-28T06:21:13.162Z,3.80
2019-05-28T06:23:38.384Z,4.50
2019-05-28T06:26:08.031Z,4.30
2019-05-28T06:28:37.936Z,6.37
2019-05-28T06:31:07.788Z,3.87
2019-05-28T06:33:37.611Z,6.57
2019-05-28T06:36:07.611Z,2.23
2019-05-28T06:38:37.255Z,4.17
2019-05-28T06:41:07.029Z,3.10
2019-05-28T06:43:37.374Z,3.93
2019-05-28T06:46:07.035Z,5.20
2019-05-28T06:48:36.996Z,3.63
2019-05-28T06:51:06.834Z,4.70
2019-05-28T06:53:36.459Z,3.37
2019-05-28T06:56:06.283Z,4.23
2019-05-28T06:58:39.830Z,3.23
2019-05-28T07:01:07.456Z,2.83
2019-05-28T07:03:37.148Z,4.30
2019-05-28T07:06:08.161Z,3.27
2019-05-28T07:08:38.504Z,3.40
2019-05-28T07:11:08.179Z,5.77
2019-05-28T07:13:37.818Z,4.40
2019-05-28T07:16:07.667Z,7.30
2019-05-28T07:18:37.309Z,2.40
2019-05-28T07:21:07.098Z,5.20
2019-05-28T07:23:37.274Z,4.80
2019-05-28T07:26:06.912Z,4.97
2019-05-28T07:28:36.563Z,2.30
2019-05-28T07:31:06.255Z,4.20
2019-05-28T07:33:36.064Z,2.93
2019-05-28T07:36:05.824Z,2.60
2019-05-28T07:38:35.468Z,2.63
2019-05-28T07:41:05.469Z,2.27
2019-05-28T07:43:35.116Z,3.43
2019-05-28T07:46:05.056Z,4.10
2019-05-28T07:48:34.815Z,5.37
2019-05-28T07:51:05.567Z,4.40
2019-05-28T07:53:39.945Z,2.73
2019-05-28T07:56:06.931Z,4.80
2019-05-28T07:58:37.364Z,6.33
2019-05-28T08:01:07.516Z,2.53
2019-05-28T08:03:37.596Z,2.33
2019-05-28T08:06:07.243Z,4.13
2019-05-28T08:08:37.071Z,4.37
2019-05-28T08:11:06.832Z,2.43
2019-05-28T08:13:40.786Z,3.13
2019-05-28T08:16:18.354Z,2.57
2019-05-28T08:18:39.542Z,3.47
2019-05-28T08:21:09.210Z,3.10
2019-05-28T08:23:40.011Z,1.87
2019-05-28T08:26:09.903Z,3.10
2019-05-28T08:28:39.566Z,3.37
2019-05-28T08:31:15.456Z,4.17
2019-05-28T08:33:41.509Z,3.33
2019-05-28T08:36:11.536Z,5.27
2019-05-28T08:38:41.943Z,2.17
2019-05-28T08:41:11.768Z,2.43
2019-05-28T08:43:41.587Z,3.60
2019-05-28T08:46:11.489Z,3.20
2019-05-28T08:48:41.134Z,3.63
2019-05-28T08:51:10.898Z,2.87
2019-05-28T08:53:41.189Z,4.60
2019-05-28T08:56:11.167Z,4.03
2019-05-28T08:58:41.172Z,3.20
2019-05-28T09:01:11.107Z,6.00
2019-05-28T09:03:41.103Z,4.30
2019-05-28T09:06:10.872Z,2.00
2019-05-28T09:08:40.620Z,1.60
2019-05-28T09:11:10.794Z,3.97
2019-05-28T09:13:41.446Z,4.10
2019-05-28T09:16:11.102Z,1.63
2019-05-28T09:18:40.820Z,2.30
2019-05-28T09:21:10.498Z,1.57
2019-05-28T09:23:40.236Z,2.87
2019-05-28T09:26:09.879Z,3.23
2019-05-28T09:28:39.531Z,3.43
2019-05-28T09:31:09.748Z,3.90
2019-05-28T09:33:39.399Z,2.63
2019-05-28T09:36:09.625Z,3.03
2019-05-28T09:38:39.464Z,2.60
2019-05-28T09:41:09.491Z,2.87
2019-05-28T09:43:39.467Z,2.50
2019-05-28T09:46:09.264Z,1.90
2019-05-28T09:48:39.398Z,1.40
2019-05-28T09:51:09.310Z,3.93
2019-05-28T09:53:39.008Z,3.43
2019-05-28T09:56:08.982Z,6.47
2019-05-28T09:58:38.901Z,2.93
2019-05-28T10:01:08.886Z,2.17
2019-05-28T10:03:38.517Z,3.57
2019-05-28T10:06:16.948Z,2.00
2019-05-28T10:08:39.613Z,6.53
2019-05-28T10:11:09.415Z,2.13
2019-05-28T10:13:41.479Z,5.43
2019-05-28T10:16:10.568Z,2.67
2019-05-28T10:18:40.675Z,2.43
2019-05-28T10:21:18.219Z,4.60
2019-05-28T10:23:41.958Z,3.03
2019-05-28T10:26:11.607Z,2.27
2019-05-28T10:28:41.260Z,2.87
2019-05-28T10:31:10.929Z,2.03
2019-05-28T10:33:41.130Z,4.50
2019-05-28T10:36:11.002Z,2.03
2019-05-28T10:38:40.707Z,2.57
2019-05-28T10:41:10.588Z,3.23
2019-05-28T10:43:41.707Z,5.00
2019-05-28T10:46:11.515Z,2.97
2019-05-28T10:48:41.703Z,2.90
2019-05-28T10:51:11.835Z,3.27
2019-05-28T10:53:41.799Z,1.60
2019-05-28T10:56:11.524Z,2.20
2019-05-28T10:58:41.445Z,2.63
2019-05-28T11:01:11.232Z,2.30
2019-05-28T11:03:41.852Z,4.10
2019-05-28T11:06:11.589Z,2.00
2019-05-28T11:08:41.229Z,3.03
2019-05-28T11:11:11.000Z,6.00
2019-05-28T11:13:52.552Z,4.17
2019-05-28T11:16:12.392Z,3.10
2019-05-28T11:18:42.215Z,2.53
2019-05-28T11:21:12.195Z,3.50
2019-05-28T11:23:42.173Z,5.37
2019-05-28T11:26:11.884Z,1.30
2019-05-28T11:28:41.779Z,2.27
2019-05-28T11:31:11.544Z,2.37
2019-05-28T11:33:41.254Z,3.40
2019-05-28T11:36:11.269Z,4.77
2019-05-28T11:38:40.920Z,2.83
2019-05-28T11:41:10.624Z,2.63
2019-05-28T11:43:40.283Z,3.00
2019-05-28T11:46:10.057Z,3.53
2019-05-28T11:48:39.768Z,5.87
2019-05-28T11:51:09.485Z,4.93
2019-05-28T11:53:39.445Z,2.83
2019-05-28T11:56:10.435Z,3.03
2019-05-28T11:58:40.379Z,4.33
2019-05-28T12:01:13.373Z,3.17
2019-05-28T12:03:43.274Z,1.93
2019-05-28T12:06:12.919Z,2.23
2019-05-28T12:08:42.640Z,2.40
2019-05-28T12:11:12.287Z,2.67
2019-05-28T12:13:41.996Z,1.90
2019-05-28T12:16:11.631Z,4.33
2019-05-28T12:18:41.780Z,3.93
2019-05-28T12:21:11.851Z,2.80
2019-05-28T12:23:41.508Z,4.80
2019-05-28T12:26:12.161Z,1.50
2019-05-28T12:28:41.869Z,3.07
2019-05-28T12:31:11.530Z,2.13
2019-05-28T12:33:41.257Z,2.40
2019-05-28T12:36:11.160Z,3.10
2019-05-28T12:38:41.158Z,4.00
2019-05-28T12:41:10.877Z,3.10
2019-05-28T12:43:40.804Z,3.30
2019-05-28T12:46:10.439Z,3.13
2019-05-28T12:48:40.486Z,3.80
2019-05-28T12:51:10.460Z,1.93
2019-05-28T12:53:49.780Z,3.53
2019-05-28T12:56:11.748Z,1.83
2019-05-28T12:58:43.335Z,3.63
2019-05-28T13:01:12.888Z,3.17
2019-05-28T13:03:42.923Z,2.77
2019-05-28T13:06:12.951Z,3.47
2019-05-28T13:08:42.885Z,3.87
2019-05-28T13:11:12.650Z,2.83
2019-05-28T13:13:42.305Z,1.87
2019-05-28T13:16:11.964Z,3.00
2019-05-28T13:18:41.864Z,3.60
2019-05-28T13:21:12.738Z,2.87
2019-05-28T13:23:42.642Z,6.00
2019-05-28T13:26:14.691Z,3.17
2019-05-28T13:28:45.099Z,2.23
2019-05-28T13:31:14.788Z,3.27
2019-05-28T13:33:44.739Z,2.40
2019-05-28T13:36:14.400Z,3.77
2019-05-28T13:38:44.043Z,3.57
2019-05-28T13:41:15.011Z,2.10
2019-05-28T13:43:45.719Z,3.93
2019-05-28T13:46:15.647Z,1.70
2019-05-28T13:48:45.292Z,3.37
2019-05-28T13:51:15.270Z,4.40
2019-05-28T13:53:44.911Z,4.03
2019-05-28T13:56:14.584Z,3.70
2019-05-28T13:58:44.267Z,3.03
2019-05-28T14:01:14.163Z,2.87
2019-05-28T14:03:43.890Z,3.23
2019-05-28T14:06:13.553Z,4.87
2019-05-28T14:08:47.257Z,2.70
2019-05-28T14:11:15.117Z,4.67
2019-05-28T14:13:44.844Z,2.33
2019-05-28T14:16:14.779Z,2.03
2019-05-28T14:18:44.887Z,2.03
2019-05-28T14:21:14.975Z,3.47
2019-05-28T14:23:45.080Z,3.83
2019-05-28T14:26:15.059Z,6.57
2019-05-28T14:28:44.691Z,5.13
2019-05-28T14:31:14.474Z,3.80
2019-05-28T14:33:44.297Z,1.70
2019-05-28T14:36:14.444Z,3.30
2019-05-28T14:38:44.098Z,2.20
2019-05-28T14:41:13.909Z,4.30
2019-05-28T14:43:43.993Z,2.83
2019-05-28T14:46:13.640Z,2.27
2019-05-28T14:48:43.316Z,1.97
2019-05-28T14:51:13.065Z,3.83
2019-05-28T14:53:42.724Z,4.07
2019-05-28T14:56:12.689Z,4.77
2019-05-28T14:58:42.359Z,1.80
2019-05-28T15:01:13.092Z,1.90
2019-05-28T15:03:42.760Z,4.27
2019-05-28T15:06:13.331Z,3.13
2019-05-28T15:08:43.056Z,2.87
2019-05-28T15:11:12.720Z,2.60
2019-05-28T15:13:42.795Z,3.27
2019-05-28T15:16:12.744Z,3.20
2019-05-28T15:18:42.708Z,4.07
2019-05-28T15:21:12.414Z,3.37
2019-05-28T15:23:42.231Z,6.10
2019-05-28T15:26:12.121Z,3.03
2019-05-28T15:28:42.019Z,4.40
2019-05-28T15:31:12.061Z,4.03
2019-05-28T15:33:41.729Z,2.73
2019-05-28T15:36:11.371Z,2.60
2019-05-28T15:38:41.080Z,3.27
2019-05-28T15:41:10.766Z,3.07
2019-05-28T15:43:40.498Z,4.87
2019-05-28T15:46:10.311Z,3.50
2019-05-28T15:48:40.203Z,2.60
2019-05-28T15:51:10.102Z,5.03
2019-05-28T15:53:39.963Z,3.03
2019-05-28T15:56:09.650Z,2.63
2019-05-28T15:58:39.381Z,4.47
2019-05-28T16:01:09.070Z,2.27
2019-05-28T16:03:38.775Z,3.77
2019-05-28T16:06:08.541Z,2.77
2019-05-28T16:08:38.236Z,2.67
2019-05-28T16:11:07.900Z,3.20
2019-05-28T16:13:38.141Z,3.23
2019-05-28T16:16:08.771Z,2.80
2019-05-28T16:18:38.424Z,4.00
2019-05-28T16:21:08.551Z,3.77
2019-05-28T16:23:38.511Z,3.67
2019-05-28T16:26:08.245Z,1.80
2019-05-28T16:28:37.905Z,2.60
2019-05-28T16:31:12.503Z,3.30
2019-05-28T16:33:39.135Z,4.33
2019-05-28T16:36:09.111Z,2.80
2019-05-28T16:38:38.776Z,2.90
2019-05-28T16:41:08.431Z,2.43
2019-05-28T16:43:38.391Z,1.93
2019-05-28T16:46:09.260Z,1.70
2019-05-28T16:48:39.245Z,3.63
2019-05-28T16:51:09.183Z,2.30
2019-05-28T16:53:38.832Z,1.90
2019-05-28T16:56:08.541Z,1.73
2019-05-28T16:58:38.179Z,2.00
2019-05-28T17:01:21.941Z,1.90
2019-05-28T17:03:39.502Z,2.93
2019-05-28T17:06:09.159Z,4.00
2019-05-28T17:08:39.069Z,3.70
2019-05-28T17:11:08.738Z,3.37
2019-05-28T17:13:38.984Z,2.77
2019-05-28T17:16:08.689Z,3.37
2019-05-28T17:18:38.331Z,1.93
2019-05-28T17:21:07.996Z,2.20
2019-05-28T17:23:37.806Z,2.73
2019-05-28T17:26:07.460Z,1.50
2019-05-28T17:28:37.113Z,4.70
2019-05-28T17:31:06.858Z,3.77
2019-05-28T17:33:37.789Z,2.13
2019-05-28T17:36:07.435Z,2.60
2019-05-28T17:38:37.401Z,2.50
2019-05-28T17:41:07.052Z,1.80
2019-05-28T17:43:37.956Z,2.13
2019-05-28T17:46:07.654Z,2.90
2019-05-28T17:48:37.308Z,3.13
2019-05-28T17:51:07.028Z,1.30
2019-05-28T17:53:36.730Z,1.23
2019-05-28T17:56:08.079Z,1.63
2019-05-28T17:58:39.133Z,2.93
2019-05-28T18:01:08.903Z,3.93
2019-05-28T18:03:38.551Z,1.73
2019-05-28T18:06:08.227Z,1.80
2019-05-28T18:08:37.960Z,3.03
2019-05-28T18:11:07.607Z,2.13
2019-05-28T18:13:37.380Z,1.90
2019-05-28T18:16:07.428Z,1.50
2019-05-28T18:18:37.392Z,1.70
2019-05-28T18:21:07.107Z,2.10
2019-05-28T18:23:37.058Z,2.67
2019-05-28T18:26:06.806Z,1.77
2019-05-28T18:28:36.487Z,2.50
2019-05-28T18:31:06.155Z,3.47
2019-05-28T18:33:35.897Z,2.67
2019-05-28T18:36:05.632Z,1.90
2019-05-28T18:38:43.515Z,1.60
2019-05-28T18:41:20.610Z,3.60
2019-05-28T18:43:38.641Z,4.10
2019-05-28T18:46:08.439Z,1.97
2019-05-28T18:48:38.423Z,2.03
2019-05-28T18:51:08.393Z,2.07
2019-05-28T18:53:38.047Z,2.37
2019-05-28T18:56:16.928Z,1.20
2019-05-28T18:58:39.229Z,2.30
2019-05-28T19:01:08.943Z,4.20
2019-05-28T19:03:38.675Z,1.43
2019-05-28T19:06:08.399Z,2.10
2019-05-28T19:08:38.691Z,3.20
2019-05-28T19:11:08.687Z,1.33
2019-05-28T19:13:39.986Z,1.63
2019-05-28T19:16:09.924Z,1.40
2019-05-28T19:18:39.892Z,2.43
2019-05-28T19:21:09.811Z,1.80
2019-05-28T19:23:39.468Z,3.80
2019-05-28T19:26:09.094Z,1.40
2019-05-28T19:28:38.751Z,3.53
2019-05-28T19:31:08.575Z,1.50
2019-05-28T19:33:38.533Z,1.50
2019-05-28T19:36:09.407Z,2.60
2019-05-28T19:38:45.530Z,2.50
2019-05-28T19:41:11.257Z,2.03
2019-05-28T19:43:41.028Z,2.70
2019-05-28T19:46:10.931Z,2.17
2019-05-28T19:48:40.600Z,3.00
2019-05-28T19:51:10.252Z,1.50
2019-05-28T19:53:39.967Z,2.27
2019-05-28T19:56:09.876Z,1.30
2019-05-28T19:58:39.651Z,5.00
2019-05-28T20:01:09.304Z,2.20
2019-05-28T20:03:38.959Z,2.37
2019-05-28T20:06:08.683Z,1.50
2019-05-28T20:08:38.376Z,3.33
2019-05-28T20:11:08.087Z,1.80
2019-05-28T20:13:37.812Z,1.90
2019-05-28T20:16:07.607Z,1.90
2019-05-28T20:18:37.247Z,2.13
2019-05-28T20:21:07.026Z,3.53
2019-05-28T20:23:36.912Z,2.50
2019-05-28T20:26:06.587Z,3.87
2019-05-28T20:28:36.234Z,4.27
2019-05-28T20:31:06.071Z,1.80
2019-05-28T20:33:37.072Z,3.93
2019-05-28T20:36:07.870Z,1.97
2019-05-28T20:38:37.655Z,2.70
2019-05-28T20:41:08.095Z,2.60
2019-05-28T20:43:37.835Z,2.47
2019-05-28T20:46:08.560Z,2.60
2019-05-28T20:48:38.275Z,4.83
2019-05-28T20:51:18.342Z,2.43
2019-05-28T20:53:40.033Z,3.97
2019-05-28T20:56:09.963Z,3.83
2019-05-28T20:58:40.703Z,2.43
2019-05-28T21:01:10.597Z,3.57
2019-05-28T21:03:40.680Z,5.30
2019-05-28T21:06:10.388Z,2.93
2019-05-28T21:08:40.027Z,2.10
2019-05-28T21:11:09.680Z,1.93
2019-05-28T21:13:39.324Z,2.23
2019-05-28T21:16:09.060Z,3.97
2019-05-28T21:18:39.175Z,2.53
2019-05-28T21:21:09.054Z,3.57
2019-05-28T21:23:38.707Z,3.40
2019-05-28T21:26:08.356Z,2.67
2019-05-28T21:28:38.070Z,2.30
2019-05-28T21:31:07.791Z,3.50
2019-05-28T21:33:37.735Z,5.93
2019-05-28T21:36:07.395Z,3.93
2019-05-28T21:38:38.311Z,2.83
2019-05-28T21:41:08.073Z,2.67
2019-05-28T21:43:37.735Z,4.53
2019-05-28T21:46:07.455Z,3.33
2019-05-28T21:48:37.168Z,3.37
2019-05-28T21:51:06.821Z,3.47
2019-05-28T21:53:36.464Z,2.00
2019-05-28T21:56:06.197Z,3.00
2019-05-28T21:58:36.172Z,2.70
2019-05-28T22:01:10.167Z,4.93
2019-05-28T22:03:39.824Z,2.53
2019-05-28T22:06:09.547Z,4.43
2019-05-28T22:08:39.336Z,2.50
2019-05-28T22:11:09.212Z,2.70
2019-05-28T22:13:39.132Z,3.07
2019-05-28T22:16:09.051Z,2.27
2019-05-28T22:18:38.719Z,4.17
2019-05-28T22:21:08.554Z,2.83
2019-05-28T22:23:39.345Z,3.27
2019-05-28T22:26:09.184Z,2.20
2019-05-28T22:28:39.435Z,2.53
2019-05-28T22:31:09.168Z,3.27
2019-05-28T22:33:39.251Z,2.53
2019-05-28T22:36:08.971Z,3.40
2019-05-28T22:38:38.736Z,3.50
2019-05-28T22:41:08.612Z,4.40
2019-05-28T22:43:38.704Z,2.53
2019-05-28T22:46:08.496Z,3.33
2019-05-28T22:48:38.204Z,4.67
2019-05-28T22:51:08.433Z,1.93
2019-05-28T22:53:40.319Z,3.50
2019-05-28T22:56:10.103Z,4.70
2019-05-28T22:58:40.043Z,5.60
2019-05-28T23:01:09.720Z,6.17
2019-05-28T23:03:39.368Z,5.53
2019-05-28T23:06:09.300Z,7.13
2019-05-28T23:08:39.063Z,3.57
2019-05-28T23:11:09.760Z,6.07
2019-05-28T23:13:46.843Z,4.63
2019-05-28T23:16:10.943Z,4.57
2019-05-28T23:18:40.586Z,4.33
2019-05-28T23:21:11.022Z,4.33
2019-05-28T23:23:41.866Z,4.73
2019-05-28T23:26:11.832Z,4.63
2019-05-28T23:28:41.478Z,5.73
2019-05-28T23:31:12.315Z,5.43
2019-05-28T23:33:42.243Z,2.93
2019-05-28T23:36:12.789Z,2.50
2019-05-28T23:38:42.502Z,4.83
2019-05-28T23:41:13.545Z,3.10
2019-05-28T23:43:43.508Z,4.20
2019-05-28T23:46:14.226Z,2.57
2019-05-28T23:48:43.891Z,4.30
2019-05-28T23:51:14.573Z,2.57
2019-05-28T23:53:44.259Z,5.53
2019-05-28T23:56:13.960Z,4.27
2019-05-28T23:58:43.662Z,2.20
